sensor_id;sensor_type;location;lat;lon;timestamp;pressure;altitude;pressure_sealevel;temperature;humidity
15694;BME280;7947;48.834;9.132;2024-02-23T00:00:47;96222.47;;;8.30;73.52
15694;BME280;7947;48.834;9.132;2024-02-23T00:03:49;96229.69;;;8.29;73.00
15694;BME280;7947;48.834;9.132;2024-02-23T00:06:52;96229.19;;;8.27;73.25
15694;BME280;7947;48.834;9.132;2024-02-23T00:09:57;96233.53;;;8.23;73.74
15694;BME280;7947;48.834;9.132;2024-02-23T00:13:00;96224.66;;;8.28;74.77
15694;BME280;7947;48.834;9.132;2024-02-23T00:16:04;96219.00;;;8.29;74.31
15694;BME280;7947;48.834;9.132;2024-02-23T00:19:07;96230.34;;;8.35;73.83
15694;BME280;7947;48.834;9.132;2024-02-23T00:22:11;96227.81;;;8.30;74.19
15694;BME280;7947;48.834;9.132;2024-02-23T00:25:15;96235.25;;;8.41;72.63
15694;BME280;7947;48.834;9.132;2024-02-23T00:28:18;96245.88;;;8.33;72.82
15694;BME280;7947;48.834;9.132;2024-02-23T00:31:20;96254.19;;;8.31;73.14
15694;BME280;7947;48.834;9.132;2024-02-23T00:34:23;96272.09;;;8.31;72.37
15694;BME280;7947;48.834;9.132;2024-02-23T00:37:27;96281.13;;;8.43;72.02
15694;BME280;7947;48.834;9.132;2024-02-23T00:40:31;96279.25;;;8.44;72.30
15694;BME280;7947;48.834;9.132;2024-02-23T00:43:37;96265.09;;;8.43;72.08
15694;BME280;7947;48.834;9.132;2024-02-23T00:46:40;96278.94;;;8.45;71.14
15694;BME280;7947;48.834;9.132;2024-02-23T00:49:43;96277.72;;;8.51;70.54
15694;BME280;7947;48.834;9.132;2024-02-23T00:52:46;96269.72;;;8.51;69.65
15694;BME280;7947;48.834;9.132;2024-02-23T00:55:51;96281.06;;;8.57;69.15
15694;BME280;7947;48.834;9.132;2024-02-23T00:58:53;96279.81;;;8.63;69.31
15694;BME280;7947;48.834;9.132;2024-02-23T01:01:56;96299.22;;;8.46;70.33
15694;BME280;7947;48.834;9.132;2024-02-23T01:04:59;96306.78;;;8.53;69.58
15694;BME280;7947;48.834;9.132;2024-02-23T01:08:03;96299.44;;;8.58;68.17
15694;BME280;7947;48.834;9.132;2024-02-23T01:11:08;96295.56;;;8.42;69.58
15694;BME280;7947;48.834;9.132;2024-02-23T01:14:11;96306.25;;;8.42;69.63
15694;BME280;7947;48.834;9.132;2024-02-23T01:17:14;96309.72;;;8.43;69.30
15694;BME280;7947;48.834;9.132;2024-02-23T01:20:18;96301.44;;;8.53;68.71
15694;BME280;7947;48.834;9.132;2024-02-23T01:23:21;96299.75;;;8.57;68.12
15694;BME280;7947;48.834;9.132;2024-02-23T01:26:25;96288.59;;;8.55;68.38
15694;BME280;7947;48.834;9.132;2024-02-23T01:29:29;96308.72;;;8.61;67.92
15694;BME280;7947;48.834;9.132;2024-02-23T01:32:32;96310.91;;;8.59;68.45
15694;BME280;7947;48.834;9.132;2024-02-23T01:35:35;96317.06;;;8.59;67.73
15694;BME280;7947;48.834;9.132;2024-02-23T01:38:38;96311.22;;;8.57;68.32
15694;BME280;7947;48.834;9.132;2024-02-23T01:41:42;96317.34;;;8.58;68.06
15694;BME280;7947;48.834;9.132;2024-02-23T01:44:46;96326.63;;;8.60;68.02
15694;BME280;7947;48.834;9.132;2024-02-23T01:47:49;96319.91;;;8.63;68.15
15694;BME280;7947;48.834;9.132;2024-02-23T01:50:53;96328.50;;;8.60;68.77
15694;BME280;7947;48.834;9.132;2024-02-23T01:53:56;96329.78;;;8.62;68.81
15694;BME280;7947;48.834;9.132;2024-02-23T01:57:01;96327.91;;;8.63;68.43
15694;BME280;7947;48.834;9.132;2024-02-23T02:00:24;96324.31;;;8.67;69.75
15694;BME280;7947;48.834;9.132;2024-02-23T02:03:27;96330.28;;;8.64;69.67
15694;BME280;7947;48.834;9.132;2024-02-23T02:06:30;96323.06;;;8.65;69.79
15694;BME280;7947;48.834;9.132;2024-02-23T02:09:33;96333.13;;;8.68;70.09
15694;BME280;7947;48.834;9.132;2024-02-23T02:12:37;96339.56;;;8.67;70.82
15694;BME280;7947;48.834;9.132;2024-02-23T02:15:40;96344.13;;;8.66;71.18
15694;BME280;7947;48.834;9.132;2024-02-23T02:18:45;96357.63;;;8.61;71.99
15694;BME280;7947;48.834;9.132;2024-02-23T02:21:48;96357.63;;;8.61;73.42
15694;BME280;7947;48.834;9.132;2024-02-23T02:24:51;96358.84;;;8.55;75.49
15694;BME280;7947;48.834;9.132;2024-02-23T02:27:55;96364.41;;;8.45;75.96
15694;BME280;7947;48.834;9.132;2024-02-23T02:30:58;96354.78;;;8.22;76.45
15694;BME280;7947;48.834;9.132;2024-02-23T02:34:01;96355.03;;;8.12;77.83
15694;BME280;7947;48.834;9.132;2024-02-23T02:37:07;96353.59;;;7.92;79.37
15694;BME280;7947;48.834;9.132;2024-02-23T02:40:11;96351.94;;;7.83;79.79
15694;BME280;7947;48.834;9.132;2024-02-23T02:43:15;96343.81;;;7.88;80.07
15694;BME280;7947;48.834;9.132;2024-02-23T02:46:18;96337.81;;;7.82;80.05
15694;BME280;7947;48.834;9.132;2024-02-23T02:49:21;96335.16;;;7.69;81.04
15694;BME280;7947;48.834;9.132;2024-02-23T02:52:24;96340.31;;;7.65;81.69
15694;BME280;7947;48.834;9.132;2024-02-23T02:55:27;96347.81;;;7.63;82.03
15694;BME280;7947;48.834;9.132;2024-02-23T02:58:32;96347.25;;;7.66;81.94
15694;BME280;7947;48.834;9.132;2024-02-23T03:01:35;96340.81;;;7.67;82.12
15694;BME280;7947;48.834;9.132;2024-02-23T03:04:37;96337.56;;;7.70;82.19
15694;BME280;7947;48.834;9.132;2024-02-23T03:07:40;96351.59;;;7.62;82.02
15694;BME280;7947;48.834;9.132;2024-02-23T03:10:43;96346.75;;;7.64;81.53
15694;BME280;7947;48.834;9.132;2024-02-23T03:13:47;96330.81;;;7.73;81.13
15694;BME280;7947;48.834;9.132;2024-02-23T03:16:50;96336.09;;;7.64;81.42
15694;BME280;7947;48.834;9.132;2024-02-23T03:19:53;96345.16;;;7.63;80.40
15694;BME280;7947;48.834;9.132;2024-02-23T03:22:56;96333.00;;;7.71;80.47
15694;BME280;7947;48.834;9.132;2024-02-23T03:25:59;96333.59;;;7.68;81.00
15694;BME280;7947;48.834;9.132;2024-02-23T03:29:03;96335.16;;;7.69;79.71
15694;BME280;7947;48.834;9.132;2024-02-23T03:32:07;96354.66;;;7.56;79.85
15694;BME280;7947;48.834;9.132;2024-02-23T03:35:10;96349.13;;;7.66;78.81
15694;BME280;7947;48.834;9.132;2024-02-23T03:38:13;96338.13;;;7.67;77.38
15694;BME280;7947;48.834;9.132;2024-02-23T03:41:16;96342.69;;;7.67;76.51
15694;BME280;7947;48.834;9.132;2024-02-23T03:44:20;96347.13;;;7.71;74.71
15694;BME280;7947;48.834;9.132;2024-02-23T03:47:23;96359.16;;;7.82;74.68
15694;BME280;7947;48.834;9.132;2024-02-23T03:50:27;96349.97;;;7.75;74.28
15694;BME280;7947;48.834;9.132;2024-02-23T03:53:31;96364.47;;;7.82;70.26
15694;BME280;7947;48.834;9.132;2024-02-23T03:56:38;96374.28;;;7.73;71.14
15694;BME280;7947;48.834;9.132;2024-02-23T03:59:52;96379.63;;;7.73;72.21
15694;BME280;7947;48.834;9.132;2024-02-23T04:02:55;96382.97;;;7.79;70.00
15694;BME280;7947;48.834;9.132;2024-02-23T04:05:59;96382.59;;;7.85;73.05
15694;BME280;7947;48.834;9.132;2024-02-23T04:09:02;96372.59;;;7.91;70.03
15694;BME280;7947;48.834;9.132;2024-02-23T04:12:07;96364.97;;;7.84;71.75
15694;BME280;7947;48.834;9.132;2024-02-23T04:15:11;96370.00;;;7.86;70.27
15694;BME280;7947;48.834;9.132;2024-02-23T04:18:14;96383.16;;;7.82;69.43
15694;BME280;7947;48.834;9.132;2024-02-23T04:21:17;96371.31;;;7.75;70.42
15694;BME280;7947;48.834;9.132;2024-02-23T04:24:20;96383.88;;;7.61;69.28
15694;BME280;7947;48.834;9.132;2024-02-23T04:27:27;96376.88;;;7.51;69.94
15694;BME280;7947;48.834;9.132;2024-02-23T04:30:31;96375.81;;;7.52;70.43
15694;BME280;7947;48.834;9.132;2024-02-23T04:33:34;96375.81;;;7.52;71.62
15694;BME280;7947;48.834;9.132;2024-02-23T04:36:37;96364.84;;;7.54;69.63
15694;BME280;7947;48.834;9.132;2024-02-23T04:39:40;96364.84;;;7.54;69.95
15694;BME280;7947;48.834;9.132;2024-02-23T04:42:44;96368.09;;;7.51;70.08
15694;BME280;7947;48.834;9.132;2024-02-23T04:45:50;96390.31;;;7.60;68.16
15694;BME280;7947;48.834;9.132;2024-02-23T04:48:53;96377.88;;;7.55;68.55
15694;BME280;7947;48.834;9.132;2024-02-23T04:51:56;96369.88;;;7.55;69.45
15694;BME280;7947;48.834;9.132;2024-02-23T04:54:59;96379.47;;;7.56;71.01
15694;BME280;7947;48.834;9.132;2024-02-23T04:58:02;96370.34;;;7.57;68.81
15694;BME280;7947;48.834;9.132;2024-02-23T05:01:06;96365.81;;;7.58;68.61
15694;BME280;7947;48.834;9.132;2024-02-23T05:04:10;96356.13;;;7.62;69.02
15694;BME280;7947;48.834;9.132;2024-02-23T05:07:13;96351.50;;;7.54;70.31
15694;BME280;7947;48.834;9.132;2024-02-23T05:10:16;96344.38;;;7.49;69.99
15694;BME280;7947;48.834;9.132;2024-02-23T05:13:19;96353.38;;;7.53;67.51
15694;BME280;7947;48.834;9.132;2024-02-23T05:16:23;96336.19;;;7.59;66.89
15694;BME280;7947;48.834;9.132;2024-02-23T05:19:26;96350.22;;;7.51;68.29
15694;BME280;7947;48.834;9.132;2024-02-23T05:22:29;96349.44;;;7.37;69.40
15694;BME280;7947;48.834;9.132;2024-02-23T05:25:32;96355.66;;;7.32;68.21
15694;BME280;7947;48.834;9.132;2024-02-23T05:28:35;96350.84;;;7.21;69.20
15694;BME280;7947;48.834;9.132;2024-02-23T05:31:48;96353.88;;;7.14;68.36
15694;BME280;7947;48.834;9.132;2024-02-23T05:34:52;96368.19;;;7.18;67.28
15694;BME280;7947;48.834;9.132;2024-02-23T05:37:56;96365.25;;;7.20;67.41
15694;BME280;7947;48.834;9.132;2024-02-23T05:40:59;96372.84;;;7.40;65.00
15694;BME280;7947;48.834;9.132;2024-02-23T05:44:03;96380.66;;;7.50;64.28
15694;BME280;7947;48.834;9.132;2024-02-23T05:47:08;96384.00;;;7.56;64.16
15694;BME280;7947;48.834;9.132;2024-02-23T05:50:12;96374.94;;;7.57;61.97
15694;BME280;7947;48.834;9.132;2024-02-23T05:53:15;96389.13;;;7.52;64.28
15694;BME280;7947;48.834;9.132;2024-02-23T05:56:18;96381.84;;;7.30;65.18
15694;BME280;7947;48.834;9.132;2024-02-23T05:59:21;96396.03;;;7.12;65.63
15694;BME280;7947;48.834;9.132;2024-02-23T06:02:26;96389.63;;;7.13;66.22
15694;BME280;7947;48.834;9.132;2024-02-23T06:05:29;96385.59;;;7.16;65.67
15694;BME280;7947;48.834;9.132;2024-02-23T06:08:32;96395.13;;;7.03;64.76
15694;BME280;7947;48.834;9.132;2024-02-23T06:11:35;96394.84;;;7.18;64.07
15694;BME280;7947;48.834;9.132;2024-02-23T06:14:38;96406.00;;;7.20;63.84
15694;BME280;7947;48.834;9.132;2024-02-23T06:17:43;96414.19;;;7.10;63.97
15694;BME280;7947;48.834;9.132;2024-02-23T06:20:46;96421.25;;;6.88;65.03
15694;BME280;7947;48.834;9.132;2024-02-23T06:23:49;96420.84;;;6.81;65.84
15694;BME280;7947;48.834;9.132;2024-02-23T06:26:52;96433.47;;;6.75;65.59
15694;BME280;7947;48.834;9.132;2024-02-23T06:29:55;96432.78;;;6.83;65.65
15694;BME280;7947;48.834;9.132;2024-02-23T06:32:59;96431.41;;;6.86;66.08
15694;BME280;7947;48.834;9.132;2024-02-23T06:36:03;96431.16;;;6.69;67.00
15694;BME280;7947;48.834;9.132;2024-02-23T06:39:06;96434.34;;;6.71;67.36
15694;BME280;7947;48.834;9.132;2024-02-23T06:42:10;96424.38;;;6.76;67.64
15694;BME280;7947;48.834;9.132;2024-02-23T06:45:13;96418.56;;;6.74;68.42
15694;BME280;7947;48.834;9.132;2024-02-23T06:48:17;96429.91;;;6.80;68.47
15694;BME280;7947;48.834;9.132;2024-02-23T06:51:20;96415.94;;;6.88;69.05
15694;BME280;7947;48.834;9.132;2024-02-23T06:54:23;96422.28;;;7.05;69.89
15694;BME280;7947;48.834;9.132;2024-02-23T06:57:25;96421.47;;;7.05;70.04
15694;BME280;7947;48.834;9.132;2024-02-23T07:00:28;96424.06;;;7.10;70.15
15694;BME280;7947;48.834;9.132;2024-02-23T07:03:33;96421.22;;;7.20;70.24
15694;BME280;7947;48.834;9.132;2024-02-23T07:06:37;96422.50;;;7.22;70.91
15694;BME280;7947;48.834;9.132;2024-02-23T07:09:40;96436.00;;;7.12;71.33
15694;BME280;7947;48.834;9.132;2024-02-23T07:12:42;96426.53;;;7.06;71.54
15694;BME280;7947;48.834;9.132;2024-02-23T07:15:46;96428.94;;;7.21;72.16
15694;BME280;7947;48.834;9.132;2024-02-23T07:18:50;96438.50;;;7.22;72.85
15694;BME280;7947;48.834;9.132;2024-02-23T07:21:53;96435.34;;;7.20;72.78
15694;BME280;7947;48.834;9.132;2024-02-23T07:24:56;96436.44;;;7.19;73.44
15694;BME280;7947;48.834;9.132;2024-02-23T07:27:58;96435.63;;;7.19;74.19
15694;BME280;7947;48.834;9.132;2024-02-23T07:31:01;96439.47;;;7.13;74.05
15694;BME280;7947;48.834;9.132;2024-02-23T07:34:05;96436.22;;;7.16;74.56
15694;BME280;7947;48.834;9.132;2024-02-23T07:37:10;96432.34;;;7.08;74.62
15694;BME280;7947;48.834;9.132;2024-02-23T07:40:13;96438.66;;;7.12;73.14
15694;BME280;7947;48.834;9.132;2024-02-23T07:43:20;96434.34;;;7.30;73.50
15694;BME280;7947;48.834;9.132;2024-02-23T07:46:23;96430.50;;;7.36;72.92
15694;BME280;7947;48.834;9.132;2024-02-23T07:49:31;96421.34;;;7.42;72.13
15694;BME280;7947;48.834;9.132;2024-02-23T07:52:34;96422.63;;;7.58;70.80
15694;BME280;7947;48.834;9.132;2024-02-23T07:55:37;96428.84;;;7.67;70.13
15694;BME280;7947;48.834;9.132;2024-02-23T07:58:40;96423.13;;;7.74;70.07
15694;BME280;7947;48.834;9.132;2024-02-23T08:01:43;96428.03;;;7.67;70.68
15694;BME280;7947;48.834;9.132;2024-02-23T08:04:47;96434.97;;;7.68;71.48
15694;BME280;7947;48.834;9.132;2024-02-23T08:07:51;96447.69;;;7.71;69.51
15694;BME280;7947;48.834;9.132;2024-02-23T08:10:54;96457.88;;;7.69;70.22
15694;BME280;7947;48.834;9.132;2024-02-23T08:13:57;96448.00;;;7.42;70.46
15694;BME280;7947;48.834;9.132;2024-02-23T08:17:00;96448.38;;;7.36;71.67
15694;BME280;7947;48.834;9.132;2024-02-23T08:20:05;96438.13;;;7.43;70.73
15694;BME280;7947;48.834;9.132;2024-02-23T08:23:09;96444.28;;;7.70;69.45
15694;BME280;7947;48.834;9.132;2024-02-23T08:26:12;96436.34;;;7.79;68.72
15694;BME280;7947;48.834;9.132;2024-02-23T08:29:16;96423.97;;;7.83;70.02
15694;BME280;7947;48.834;9.132;2024-02-23T08:32:19;96426.03;;;7.86;70.46
15694;BME280;7947;48.834;9.132;2024-02-23T08:35:24;96428.25;;;7.84;69.57
15694;BME280;7947;48.834;9.132;2024-02-23T08:38:27;96418.75;;;7.91;68.13
15694;BME280;7947;48.834;9.132;2024-02-23T08:41:30;96411.81;;;7.90;67.60
15694;BME280;7947;48.834;9.132;2024-02-23T08:44:33;96417.47;;;7.89;68.67
15694;BME280;7947;48.834;9.132;2024-02-23T08:47:37;96425.66;;;7.79;68.15
15694;BME280;7947;48.834;9.132;2024-02-23T08:50:41;96426.84;;;7.86;68.32
15694;BME280;7947;48.834;9.132;2024-02-23T08:53:44;96439.13;;;7.87;67.26
15694;BME280;7947;48.834;9.132;2024-02-23T08:56:47;96433.38;;;7.80;67.63
15694;BME280;7947;48.834;9.132;2024-02-23T08:59:50;96434.38;;;7.57;68.73
15694;BME280;7947;48.834;9.132;2024-02-23T09:02:53;96437.94;;;7.53;69.00
15694;BME280;7947;48.834;9.132;2024-02-23T09:05:57;96441.38;;;7.53;68.87
15694;BME280;7947;48.834;9.132;2024-02-23T09:09:00;96437.16;;;7.66;68.94
15694;BME280;7947;48.834;9.132;2024-02-23T09:12:04;96439.31;;;7.50;68.45
15694;BME280;7947;48.834;9.132;2024-02-23T09:15:08;96445.34;;;7.56;68.42
15694;BME280;7947;48.834;9.132;2024-02-23T09:18:11;96446.94;;;7.57;67.41
15694;BME280;7947;48.834;9.132;2024-02-23T09:21:16;96452.47;;;7.47;68.66
15694;BME280;7947;48.834;9.132;2024-02-23T09:24:19;96449.00;;;7.60;68.56
15694;BME280;7947;48.834;9.132;2024-02-23T09:27:21;96459.66;;;7.46;67.81
15694;BME280;7947;48.834;9.132;2024-02-23T09:30:25;96460.94;;;7.35;67.25
15694;BME280;7947;48.834;9.132;2024-02-23T09:33:27;96445.44;;;7.51;66.81
15694;BME280;7947;48.834;9.132;2024-02-23T09:36:32;96445.84;;;7.58;66.48
15694;BME280;7947;48.834;9.132;2024-02-23T09:39:35;96447.19;;;7.42;64.86
15694;BME280;7947;48.834;9.132;2024-02-23T09:42:38;96452.44;;;7.33;65.77
15694;BME280;7947;48.834;9.132;2024-02-23T09:45:41;96465.38;;;7.67;64.64
15694;BME280;7947;48.834;9.132;2024-02-23T09:48:45;96454.22;;;7.38;65.95
15694;BME280;7947;48.834;9.132;2024-02-23T09:51:49;96451.06;;;7.90;64.30
15694;BME280;7947;48.834;9.132;2024-02-23T09:54:52;96455.69;;;7.98;64.29
15694;BME280;7947;48.834;9.132;2024-02-23T09:57:57;96450.66;;;7.96;65.29
15694;BME280;7947;48.834;9.132;2024-02-23T10:01:02;96458.66;;;7.96;62.66
15694;BME280;7947;48.834;9.132;2024-02-23T10:04:06;96451.75;;;8.09;62.51
15694;BME280;7947;48.834;9.132;2024-02-23T10:07:14;96454.25;;;8.41;62.87
15694;BME280;7947;48.834;9.132;2024-02-23T10:10:24;96453.97;;;8.29;61.56
15694;BME280;7947;48.834;9.132;2024-02-23T10:13:29;96446.72;;;8.43;62.21
15694;BME280;7947;48.834;9.132;2024-02-23T10:16:32;96449.75;;;8.50;62.26
15694;BME280;7947;48.834;9.132;2024-02-23T10:19:35;96457.06;;;8.36;61.76
15694;BME280;7947;48.834;9.132;2024-02-23T10:22:41;96465.56;;;8.25;61.53
15694;BME280;7947;48.834;9.132;2024-02-23T10:25:44;96470.50;;;8.31;62.88
15694;BME280;7947;48.834;9.132;2024-02-23T10:28:47;96475.25;;;8.20;61.62
15694;BME280;7947;48.834;9.132;2024-02-23T10:31:51;96471.97;;;8.23;61.24
15694;BME280;7947;48.834;9.132;2024-02-23T10:34:55;96463.56;;;8.44;60.75
15694;BME280;7947;48.834;9.132;2024-02-23T10:38:04;96463.78;;;8.56;61.04
15694;BME280;7947;48.834;9.132;2024-02-23T10:41:09;96461.69;;;8.66;59.27
15694;BME280;7947;48.834;9.132;2024-02-23T10:44:16;96453.59;;;9.02;59.05
15694;BME280;7947;48.834;9.132;2024-02-23T10:47:21;96462.41;;;9.25;59.30
15694;BME280;7947;48.834;9.132;2024-02-23T10:50:25;96458.44;;;9.53;56.29
15694;BME280;7947;48.834;9.132;2024-02-23T10:53:30;96454.19;;;9.91;56.16
15694;BME280;7947;48.834;9.132;2024-02-23T10:56:33;96463.53;;;10.11;56.22
15694;BME280;7947;48.834;9.132;2024-02-23T10:59:36;96449.88;;;9.81;54.88
15694;BME280;7947;48.834;9.132;2024-02-23T11:02:41;96450.53;;;9.87;55.80
15694;BME280;7947;48.834;9.132;2024-02-23T11:05:47;96452.56;;;9.81;55.69
15694;BME280;7947;48.834;9.132;2024-02-23T11:08:53;96438.41;;;9.89;57.16
15694;BME280;7947;48.834;9.132;2024-02-23T11:11:57;96441.38;;;9.79;58.06
15694;BME280;7947;48.834;9.132;2024-02-23T11:15:01;96442.06;;;10.02;53.93
15694;BME280;7947;48.834;9.132;2024-02-23T11:18:21;96428.19;;;10.09;55.51
15694;BME280;7947;48.834;9.132;2024-02-23T11:21:33;96424.88;;;10.03;54.56
15694;BME280;7947;48.834;9.132;2024-02-23T11:24:42;96430.41;;;9.98;53.36
15694;BME280;7947;48.834;9.132;2024-02-23T11:27:49;96428.03;;;9.96;54.14
15694;BME280;7947;48.834;9.132;2024-02-23T11:30:53;96426.47;;;10.04;54.53
15694;BME280;7947;48.834;9.132;2024-02-23T11:33:57;96431.97;;;9.90;54.81
15694;BME280;7947;48.834;9.132;2024-02-23T11:37:07;96430.66;;;9.79;53.49
15694;BME280;7947;48.834;9.132;2024-02-23T11:40:13;96423.69;;;9.70;54.40
15694;BME280;7947;48.834;9.132;2024-02-23T11:43:17;96416.91;;;9.55;55.46
15694;BME280;7947;48.834;9.132;2024-02-23T11:46:20;96420.38;;;9.56;54.72
15694;BME280;7947;48.834;9.132;2024-02-23T11:49:27;96420.47;;;9.42;54.36
15694;BME280;7947;48.834;9.132;2024-02-23T11:52:30;96424.31;;;9.28;56.13
15694;BME280;7947;48.834;9.132;2024-02-23T11:55:35;96426.50;;;9.17;56.58
15694;BME280;7947;48.834;9.132;2024-02-23T11:58:39;96417.72;;;9.25;54.74
15694;BME280;7947;48.834;9.132;2024-02-23T12:01:43;96413.22;;;9.12;55.74
15694;BME280;7947;48.834;9.132;2024-02-23T12:04:45;96412.31;;;9.17;56.56
15694;BME280;7947;48.834;9.132;2024-02-23T12:07:49;96404.56;;;9.06;58.44
15694;BME280;7947;48.834;9.132;2024-02-23T12:10:53;96412.97;;;9.22;57.18
15694;BME280;7947;48.834;9.132;2024-02-23T12:13:56;96403.28;;;9.04;58.05
15694;BME280;7947;48.834;9.132;2024-02-23T12:17:02;96403.19;;;8.87;58.40
15694;BME280;7947;48.834;9.132;2024-02-23T12:20:07;96404.59;;;8.84;58.25
15694;BME280;7947;48.834;9.132;2024-02-23T12:23:11;96390.38;;;8.75;58.96
15694;BME280;7947;48.834;9.132;2024-02-23T12:26:16;96395.47;;;8.85;57.98
15694;BME280;7947;48.834;9.132;2024-02-23T12:29:19;96401.44;;;8.82;58.23
15694;BME280;7947;48.834;9.132;2024-02-23T12:32:23;96396.84;;;8.74;59.78
15694;BME280;7947;48.834;9.132;2024-02-23T12:35:27;96387.78;;;8.84;58.33
15694;BME280;7947;48.834;9.132;2024-02-23T12:38:30;96390.22;;;9.02;57.31
15694;BME280;7947;48.834;9.132;2024-02-23T12:41:35;96398.69;;;8.96;57.12
15694;BME280;7947;48.834;9.132;2024-02-23T12:44:38;96388.88;;;9.14;56.49
15694;BME280;7947;48.834;9.132;2024-02-23T12:47:41;96386.88;;;9.19;56.15
15694;BME280;7947;48.834;9.132;2024-02-23T12:50:44;96387.63;;;9.20;57.46
15694;BME280;7947;48.834;9.132;2024-02-23T12:53:47;96391.34;;;9.10;58.21
15694;BME280;7947;48.834;9.132;2024-02-23T12:56:51;96391.81;;;9.03;57.99
15694;BME280;7947;48.834;9.132;2024-02-23T12:59:54;96385.41;;;9.13;57.43
15694;BME280;7947;48.834;9.132;2024-02-23T13:02:57;96383.47;;;9.05;56.77
15694;BME280;7947;48.834;9.132;2024-02-23T13:06:00;96384.19;;;9.19;58.10
15694;BME280;7947;48.834;9.132;2024-02-23T13:09:04;96398.06;;;8.99;56.17
15694;BME280;7947;48.834;9.132;2024-02-23T13:12:09;96401.47;;;8.91;56.31
15694;BME280;7947;48.834;9.132;2024-02-23T13:15:12;96396.53;;;9.06;56.14
15694;BME280;7947;48.834;9.132;2024-02-23T13:18:20;96392.47;;;9.09;56.93
15694;BME280;7947;48.834;9.132;2024-02-23T13:21:23;96383.38;;;9.19;56.69
15694;BME280;7947;48.834;9.132;2024-02-23T13:24:26;96390.88;;;9.39;56.02
15694;BME280;7947;48.834;9.132;2024-02-23T13:27:31;96390.41;;;9.37;55.56
15694;BME280;7947;48.834;9.132;2024-02-23T13:30:34;96392.59;;;9.35;56.08
15694;BME280;7947;48.834;9.132;2024-02-23T13:33:37;96390.41;;;9.45;55.96
15694;BME280;7947;48.834;9.132;2024-02-23T13:36:41;96390.19;;;9.25;57.80
15694;BME280;7947;48.834;9.132;2024-02-23T13:39:44;96382.38;;;9.45;56.64
15694;BME280;7947;48.834;9.132;2024-02-23T13:42:48;96379.59;;;9.50;56.41
15694;BME280;7947;48.834;9.132;2024-02-23T13:45:52;96371.22;;;9.43;57.80
15694;BME280;7947;48.834;9.132;2024-02-23T13:49:02;96367.69;;;9.26;58.59
15694;BME280;7947;48.834;9.132;2024-02-23T13:52:06;96370.66;;;9.24;57.71
15694;BME280;7947;48.834;9.132;2024-02-23T13:55:09;96360.41;;;9.18;58.59
15694;BME280;7947;48.834;9.132;2024-02-23T13:58:13;96362.47;;;9.21;59.07
15694;BME280;7947;48.834;9.132;2024-02-23T14:01:16;96345.94;;;9.19;58.12
15694;BME280;7947;48.834;9.132;2024-02-23T14:04:19;96339.19;;;9.21;59.03
15694;BME280;7947;48.834;9.132;2024-02-23T14:07:22;96328.94;;;9.15;59.59
15694;BME280;7947;48.834;9.132;2024-02-23T14:10:24;96329.47;;;9.34;60.20
15694;BME280;7947;48.834;9.132;2024-02-23T14:13:28;96317.84;;;9.47;58.54
15694;BME280;7947;48.834;9.132;2024-02-23T14:16:31;96316.75;;;9.39;59.24
15694;BME280;7947;48.834;9.132;2024-02-23T14:19:34;96312.22;;;9.57;58.73
15694;BME280;7947;48.834;9.132;2024-02-23T14:22:39;96322.94;;;9.65;58.11
15694;BME280;7947;48.834;9.132;2024-02-23T14:25:42;96316.00;;;9.56;57.67
15694;BME280;7947;48.834;9.132;2024-02-23T14:28:46;96315.78;;;9.35;58.96
15694;BME280;7947;48.834;9.132;2024-02-23T14:31:48;96325.69;;;9.26;59.07
15694;BME280;7947;48.834;9.132;2024-02-23T14:34:51;96312.34;;;9.43;59.98
15694;BME280;7947;48.834;9.132;2024-02-23T14:37:54;96317.38;;;9.45;59.17
15694;BME280;7947;48.834;9.132;2024-02-23T14:40:57;96317.06;;;9.38;58.53
15694;BME280;7947;48.834;9.132;2024-02-23T14:44:01;96333.44;;;9.45;57.27
15694;BME280;7947;48.834;9.132;2024-02-23T14:47:05;96324.81;;;9.48;57.12
15694;BME280;7947;48.834;9.132;2024-02-23T14:50:07;96321.19;;;9.52;58.27
15694;BME280;7947;48.834;9.132;2024-02-23T14:53:11;96310.66;;;9.56;57.11
15694;BME280;7947;48.834;9.132;2024-02-23T14:56:14;96311.13;;;9.58;58.43
15694;BME280;7947;48.834;9.132;2024-02-23T14:59:18;96307.81;;;9.61;58.71
15694;BME280;7947;48.834;9.132;2024-02-23T15:02:21;96309.22;;;9.50;57.85
15694;BME280;7947;48.834;9.132;2024-02-23T15:05:25;96320.00;;;9.28;58.31
15694;BME280;7947;48.834;9.132;2024-02-23T15:08:28;96310.16;;;9.45;56.63
15694;BME280;7947;48.834;9.132;2024-02-23T15:11:30;96320.16;;;9.23;57.94
15694;BME280;7947;48.834;9.132;2024-02-23T15:14:35;96320.94;;;9.15;57.86
15694;BME280;7947;48.834;9.132;2024-02-23T15:17:38;96324.56;;;9.27;57.92
15694;BME280;7947;48.834;9.132;2024-02-23T15:20:43;96318.72;;;9.17;58.18
15694;BME280;7947;48.834;9.132;2024-02-23T15:23:47;96310.06;;;9.11;58.98
15694;BME280;7947;48.834;9.132;2024-02-23T15:26:50;96302.47;;;9.04;57.67
15694;BME280;7947;48.834;9.132;2024-02-23T15:29:54;96309.63;;;9.26;57.07
15694;BME280;7947;48.834;9.132;2024-02-23T15:32:57;96315.78;;;9.27;56.83
15694;BME280;7947;48.834;9.132;2024-02-23T15:36:00;96306.84;;;9.40;56.90
15694;BME280;7947;48.834;9.132;2024-02-23T15:39:05;96308.25;;;9.37;58.32
15694;BME280;7947;48.834;9.132;2024-02-23T15:42:09;96312.81;;;9.45;58.12
15694;BME280;7947;48.834;9.132;2024-02-23T15:45:13;96318.94;;;9.37;57.17
15694;BME280;7947;48.834;9.132;2024-02-23T15:48:16;96322.88;;;9.40;58.75
15694;BME280;7947;48.834;9.132;2024-02-23T15:51:19;96316.50;;;9.58;58.91
15694;BME280;7947;48.834;9.132;2024-02-23T15:54:42;96321.03;;;9.57;60.73
15694;BME280;7947;48.834;9.132;2024-02-23T15:57:45;96316.78;;;9.56;61.58
15694;BME280;7947;48.834;9.132;2024-02-23T16:00:49;96310.34;;;9.57;62.95
15694;BME280;7947;48.834;9.132;2024-02-23T16:03:52;96306.66;;;9.28;62.67
15694;BME280;7947;48.834;9.132;2024-02-23T16:06:55;96307.75;;;9.27;63.24
15694;BME280;7947;48.834;9.132;2024-02-23T16:09:58;96300.97;;;9.29;65.83
15694;BME280;7947;48.834;9.132;2024-02-23T16:13:01;96298.41;;;9.16;66.45
15694;BME280;7947;48.834;9.132;2024-02-23T16:16:07;96303.97;;;9.28;65.30
15694;BME280;7947;48.834;9.132;2024-02-23T16:19:10;96290.44;;;9.24;64.58
15694;BME280;7947;48.834;9.132;2024-02-23T16:22:13;96300.44;;;9.10;66.03
15694;BME280;7947;48.834;9.132;2024-02-23T16:25:16;96293.25;;;8.80;67.40
15694;BME280;7947;48.834;9.132;2024-02-23T16:28:19;96304.00;;;8.58;68.04
15694;BME280;7947;48.834;9.132;2024-02-23T16:31:24;96308.34;;;8.54;68.81
15694;BME280;7947;48.834;9.132;2024-02-23T16:34:28;96294.50;;;8.43;69.01
15694;BME280;7947;48.834;9.132;2024-02-23T16:37:33;96283.31;;;8.41;69.19
15694;BME280;7947;48.834;9.132;2024-02-23T16:40:37;96291.34;;;8.41;68.92